sensor_id;sensor_type;location;lat;lon;timestamp;pressure;altitude;pressure_sealevel;temperature;humidity
55460;BME280;41326;45.302;-122.946;2023-01-28T00:01:11;101767.54;;;17.14;57.38
55460;BME280;41326;45.302;-122.946;2023-01-28T00:03:39;101764.70;;;17.09;57.50
55460;BME280;41326;45.302;-122.946;2023-01-28T00:06:11;101764.16;;;17.11;57.44
55460;BME280;41326;45.302;-122.946;2023-01-28T00:08:40;101760.10;;;17.09;57.52
55460;BME280;41326;45.302;-122.946;2023-01-28T00:11:12;101756.54;;;17.09;57.67
55460;BME280;41326;45.302;-122.946;2023-01-28T00:13:40;101756.80;;;17.06;58.10
55460;BME280;41326;45.302;-122.946;2023-01-28T00:16:12;101757.96;;;17.07;58.23
55460;BME280;41326;45.302;-122.946;2023-01-28T00:18:41;101758.46;;;17.08;58.41
55460;BME280;41326;45.302;-122.946;2023-01-28T00:21:14;101760.45;;;17.08;58.38
55460;BME280;41326;45.302;-122.946;2023-01-28T00:23:45;101757.87;;;17.08;58.37
55460;BME280;41326;45.302;-122.946;2023-01-28T00:26:15;101753.34;;;17.13;58.40
55460;BME280;41326;45.302;-122.946;2023-01-28T00:28:43;101751.68;;;17.17;58.28
55460;BME280;41326;45.302;-122.946;2023-01-28T00:31:14;101748.15;;;17.17;58.30
55460;BME280;41326;45.302;-122.946;2023-01-28T00:33:44;101744.83;;;17.15;58.34
55460;BME280;41326;45.302;-122.946;2023-01-28T00:36:14;101743.35;;;17.18;58.28
55460;BME280;41326;45.302;-122.946;2023-01-28T00:38:48;101736.58;;;17.20;58.12
55460;BME280;41326;45.302;-122.946;2023-01-28T00:41:15;101736.48;;;17.19;58.10
55460;BME280;41326;45.302;-122.946;2023-01-28T00:43:45;101732.50;;;17.20;57.98
55460;BME280;41326;45.302;-122.946;2023-01-28T00:46:15;101729.13;;;17.29;57.67
55460;BME280;41326;45.302;-122.946;2023-01-28T00:48:46;101725.67;;;17.36;57.42
55460;BME280;41326;45.302;-122.946;2023-01-28T00:51:18;101723.28;;;17.50;57.10
55460;BME280;41326;45.302;-122.946;2023-01-28T00:53:46;101724.32;;;17.60;56.79
55460;BME280;41326;45.302;-122.946;2023-01-28T00:56:18;101724.30;;;17.69;56.48
55460;BME280;41326;45.302;-122.946;2023-01-28T00:58:46;101724.51;;;17.82;56.14
55460;BME280;41326;45.302;-122.946;2023-01-28T01:01:18;101722.07;;;17.92;55.92
55460;BME280;41326;45.302;-122.946;2023-01-28T01:03:47;101720.64;;;17.96;55.87
55460;BME280;41326;45.302;-122.946;2023-01-28T01:06:18;101719.20;;;18.05;55.65
55460;BME280;41326;45.302;-122.946;2023-01-28T01:08:47;101715.72;;;18.11;55.51
55460;BME280;41326;45.302;-122.946;2023-01-28T01:11:17;101713.37;;;18.08;55.60
55460;BME280;41326;45.302;-122.946;2023-01-28T01:13:50;101711.59;;;18.07;55.59
55460;BME280;41326;45.302;-122.946;2023-01-28T01:16:19;101714.43;;;18.05;55.66
55460;BME280;41326;45.302;-122.946;2023-01-28T01:18:49;101716.67;;;18.03;55.68
55460;BME280;41326;45.302;-122.946;2023-01-28T01:21:21;101717.86;;;18.09;55.58
55460;BME280;41326;45.302;-122.946;2023-01-28T01:23:49;101715.85;;;18.10;55.66
55460;BME280;41326;45.302;-122.946;2023-01-28T01:26:19;101714.06;;;18.18;55.60
55460;BME280;41326;45.302;-122.946;2023-01-28T01:28:50;101710.93;;;18.28;55.35
55460;BME280;41326;45.302;-122.946;2023-01-28T01:31:22;101704.02;;;18.26;55.41
55460;BME280;41326;45.302;-122.946;2023-01-28T01:33:51;101703.46;;;18.19;55.62
55460;BME280;41326;45.302;-122.946;2023-01-28T01:36:22;101707.68;;;18.15;55.70
55460;BME280;41326;45.302;-122.946;2023-01-28T01:38:52;101707.07;;;18.12;55.79
55460;BME280;41326;45.302;-122.946;2023-01-28T01:41:28;101711.24;;;18.06;55.93
55460;BME280;41326;45.302;-122.946;2023-01-28T01:43:55;101711.50;;;18.11;55.85
55460;BME280;41326;45.302;-122.946;2023-01-28T01:46:28;101707.86;;;18.15;55.88
55460;BME280;41326;45.302;-122.946;2023-01-28T01:48:53;101713.01;;;18.22;55.76
55460;BME280;41326;45.302;-122.946;2023-01-28T01:51:28;101716.62;;;18.30;55.70
55460;BME280;41326;45.302;-122.946;2023-01-28T01:53:57;101717.92;;;18.31;55.72
55460;BME280;41326;45.302;-122.946;2023-01-28T01:56:27;101723.27;;;18.31;55.85
55460;BME280;41326;45.302;-122.946;2023-01-28T01:58:58;101721.55;;;18.28;56.11
55460;BME280;41326;45.302;-122.946;2023-01-28T02:01:26;101721.73;;;18.26;56.18
55460;BME280;41326;45.302;-122.946;2023-01-28T02:04:02;101718.55;;;18.21;56.48
55460;BME280;41326;45.302;-122.946;2023-01-28T02:06:26;101716.69;;;18.21;56.71
55460;BME280;41326;45.302;-122.946;2023-01-28T02:08:59;101718.58;;;18.13;58.43
55460;BME280;41326;45.302;-122.946;2023-01-28T02:11:27;101718.49;;;18.10;59.69
55460;BME280;41326;45.302;-122.946;2023-01-28T02:13:59;101718.54;;;18.07;60.14
55460;BME280;41326;45.302;-122.946;2023-01-28T02:16:27;101717.74;;;18.12;60.88
55460;BME280;41326;45.302;-122.946;2023-01-28T02:18:56;101717.96;;;18.13;62.82
55460;BME280;41326;45.302;-122.946;2023-01-28T02:24:09;101722.50;;;18.09;64.98
55460;BME280;41326;45.302;-122.946;2023-01-28T02:28:59;101732.95;;;18.09;64.34
55460;BME280;41326;45.302;-122.946;2023-01-28T02:32:42;101736.89;;;18.10;64.81
55460;BME280;41326;45.302;-122.946;2023-01-28T02:35:12;101738.23;;;18.13;64.41
55460;BME280;41326;45.302;-122.946;2023-01-28T02:37:43;101736.95;;;18.17;63.85
55460;BME280;41326;45.302;-122.946;2023-01-28T02:40:12;101734.80;;;18.19;63.46
55460;BME280;41326;45.302;-122.946;2023-01-28T02:42:42;101733.29;;;18.19;62.93
55460;BME280;41326;45.302;-122.946;2023-01-28T02:45:18;101733.31;;;18.21;62.49
55460;BME280;41326;45.302;-122.946;2023-01-28T02:47:43;101737.33;;;18.21;62.29
55460;BME280;41326;45.302;-122.946;2023-01-28T02:50:16;101739.08;;;18.25;62.04
55460;BME280;41326;45.302;-122.946;2023-01-28T02:52:56;101744.39;;;18.25;61.88
55460;BME280;41326;45.302;-122.946;2023-01-28T02:55:20;101739.28;;;18.22;62.12
55460;BME280;41326;45.302;-122.946;2023-01-28T02:57:53;101740.59;;;18.24;62.31
55460;BME280;41326;45.302;-122.946;2023-01-28T03:00:17;101740.55;;;18.23;62.14
55460;BME280;41326;45.302;-122.946;2023-01-28T03:02:49;101741.50;;;18.21;62.18
55460;BME280;41326;45.302;-122.946;2023-01-28T03:05:22;101738.38;;;18.19;62.21
55460;BME280;41326;45.302;-122.946;2023-01-28T03:07:46;101741.49;;;18.16;63.35
55460;BME280;41326;45.302;-122.946;2023-01-28T03:10:20;101743.65;;;18.12;63.81
55460;BME280;41326;45.302;-122.946;2023-01-28T03:12:50;101740.59;;;18.15;63.58
55460;BME280;41326;45.302;-122.946;2023-01-28T03:15:19;101735.16;;;18.14;63.37
55460;BME280;41326;45.302;-122.946;2023-01-28T03:17:51;101734.67;;;18.15;63.15
55460;BME280;41326;45.302;-122.946;2023-01-28T03:20:18;101731.22;;;18.13;62.88
55460;BME280;41326;45.302;-122.946;2023-01-28T03:22:50;101729.93;;;18.09;62.55
55460;BME280;41326;45.302;-122.946;2023-01-28T03:25:20;101724.01;;;18.08;62.53
55460;BME280;41326;45.302;-122.946;2023-01-28T03:27:53;101720.50;;;18.11;62.52
55460;BME280;41326;45.302;-122.946;2023-01-28T03:30:23;101718.37;;;18.09;62.54
55460;BME280;41326;45.302;-122.946;2023-01-28T03:32:50;101721.92;;;18.07;62.54
55460;BME280;41326;45.302;-122.946;2023-01-28T03:35:21;101724.38;;;18.12;62.18
55460;BME280;41326;45.302;-122.946;2023-01-28T03:37:50;101721.11;;;18.08;62.16
55460;BME280;41326;45.302;-122.946;2023-01-28T03:40:20;101722.26;;;18.07;61.99
55460;BME280;41326;45.302;-122.946;2023-01-28T03:42:51;101725.61;;;18.05;61.75
55460;BME280;41326;45.302;-122.946;2023-01-28T03:45:21;101728.29;;;18.03;62.00
55460;BME280;41326;45.302;-122.946;2023-01-28T03:47:52;101723.08;;;18.02;62.15
55460;BME280;41326;45.302;-122.946;2023-01-28T03:50:21;101724.70;;;18.08;62.09
55460;BME280;41326;45.302;-122.946;2023-01-28T03:52:53;101722.88;;;18.05;62.32
55460;BME280;41326;45.302;-122.946;2023-01-28T03:55:22;101722.79;;;18.05;62.30
55460;BME280;41326;45.302;-122.946;2023-01-28T03:57:52;101726.69;;;18.02;62.39
55460;BME280;41326;45.302;-122.946;2023-01-28T04:00:23;101720.46;;;18.05;62.08
55460;BME280;41326;45.302;-122.946;2023-01-28T04:02:53;101721.76;;;18.04;61.86
55460;BME280;41326;45.302;-122.946;2023-01-28T04:05:23;101718.00;;;18.02;61.85
55460;BME280;41326;45.302;-122.946;2023-01-28T04:07:54;101719.31;;;18.04;61.74
55460;BME280;41326;45.302;-122.946;2023-01-28T04:10:24;101717.56;;;18.01;61.90
55460;BME280;41326;45.302;-122.946;2023-01-28T04:12:54;101717.49;;;18.06;61.75
55460;BME280;41326;45.302;-122.946;2023-01-28T04:15:24;101717.33;;;18.06;61.70
55460;BME280;41326;45.302;-122.946;2023-01-28T04:17:55;101717.69;;;18.04;61.88
55460;BME280;41326;45.302;-122.946;2023-01-28T04:20:25;101719.22;;;18.00;61.94
55460;BME280;41326;45.302;-122.946;2023-01-28T04:22:55;101720.84;;;18.03;61.75
55460;BME280;41326;45.302;-122.946;2023-01-28T04:25:26;101722.28;;;18.05;61.50
55460;BME280;41326;45.302;-122.946;2023-01-28T04:27:56;101718.62;;;18.16;61.24
55460;BME280;41326;45.302;-122.946;2023-01-28T04:30:27;101712.29;;;18.27;60.69
55460;BME280;41326;45.302;-122.946;2023-01-28T04:32:57;101706.87;;;18.31;60.82
55460;BME280;41326;45.302;-122.946;2023-01-28T04:35:26;101703.43;;;18.31;60.75
55460;BME280;41326;45.302;-122.946;2023-01-28T04:37:57;101703.55;;;18.28;60.89
55460;BME280;41326;45.302;-122.946;2023-01-28T04:40:27;101702.93;;;18.22;60.93
55460;BME280;41326;45.302;-122.946;2023-01-28T04:42:58;101700.62;;;18.24;60.77
55460;BME280;41326;45.302;-122.946;2023-01-28T04:45:28;101700.36;;;18.24;60.71
55460;BME280;41326;45.302;-122.946;2023-01-28T04:47:58;101697.43;;;18.24;60.80
55460;BME280;41326;45.302;-122.946;2023-01-28T04:50:28;101695.35;;;18.22;60.93
55460;BME280;41326;45.302;-122.946;2023-01-28T04:52:59;101700.12;;;18.20;60.92
55460;BME280;41326;45.302;-122.946;2023-01-28T04:55:30;101702.20;;;18.20;61.01
55460;BME280;41326;45.302;-122.946;2023-01-28T04:58:00;101700.87;;;18.14;61.10
55460;BME280;41326;45.302;-122.946;2023-01-28T05:00:30;101702.50;;;18.15;60.88
55460;BME280;41326;45.302;-122.946;2023-01-28T05:03:01;101704.05;;;18.10;60.81
55460;BME280;41326;45.302;-122.946;2023-01-28T05:05:31;101700.60;;;18.06;60.83
55460;BME280;41326;45.302;-122.946;2023-01-28T05:08:02;101698.26;;;18.01;60.98
55460;BME280;41326;45.302;-122.946;2023-01-28T05:10:32;101697.77;;;18.03;60.91
55460;BME280;41326;45.302;-122.946;2023-01-28T05:13:02;101700.61;;;18.00;60.97
55460;BME280;41326;45.302;-122.946;2023-01-28T05:15:33;101702.69;;;17.94;61.11
55460;BME280;41326;45.302;-122.946;2023-01-28T05:18:03;101704.09;;;17.98;60.89
55460;BME280;41326;45.302;-122.946;2023-01-28T05:20:34;101703.88;;;17.95;60.80
55460;BME280;41326;45.302;-122.946;2023-01-28T05:23:04;101705.50;;;17.90;60.78
55460;BME280;41326;45.302;-122.946;2023-01-28T05:25:35;101705.76;;;17.91;60.71
55460;BME280;41326;45.302;-122.946;2023-01-28T05:28:05;101707.60;;;17.88;60.73
55460;BME280;41326;45.302;-122.946;2023-01-28T05:30:36;101710.23;;;17.90;60.69
55460;BME280;41326;45.302;-122.946;2023-01-28T05:33:05;101706.64;;;17.86;60.71
55460;BME280;41326;45.302;-122.946;2023-01-28T05:35:36;101708.16;;;17.82;60.77
55460;BME280;41326;45.302;-122.946;2023-01-28T05:38:06;101704.16;;;17.82;60.70
55460;BME280;41326;45.302;-122.946;2023-01-28T05:40:37;101702.81;;;17.84;60.44
55460;BME280;41326;45.302;-122.946;2023-01-28T05:43:07;101699.29;;;17.82;60.30
55460;BME280;41326;45.302;-122.946;2023-01-28T05:45:37;101695.77;;;17.84;60.13
55460;BME280;41326;45.302;-122.946;2023-01-28T05:48:07;101696.33;;;17.85;60.10
55460;BME280;41326;45.302;-122.946;2023-01-28T05:50:38;101694.66;;;17.83;60.06
55460;BME280;41326;45.302;-122.946;2023-01-28T05:53:10;101693.10;;;17.80;60.13
55460;BME280;41326;45.302;-122.946;2023-01-28T05:55:38;101692.20;;;17.73;60.27
55460;BME280;41326;45.302;-122.946;2023-01-28T05:58:08;101689.06;;;17.74;60.14
55460;BME280;41326;45.302;-122.946;2023-01-28T06:00:39;101688.18;;;17.71;60.04
55460;BME280;41326;45.302;-122.946;2023-01-28T06:03:10;101686.24;;;17.71;59.84
55460;BME280;41326;45.302;-122.946;2023-01-28T06:05:40;101688.52;;;17.68;59.86
55460;BME280;41326;45.302;-122.946;2023-01-28T06:08:10;101683.72;;;17.69;59.81
55460;BME280;41326;45.302;-122.946;2023-01-28T06:10:41;101681.93;;;17.67;59.79
55460;BME280;41326;45.302;-122.946;2023-01-28T06:13:11;101681.91;;;17.62;59.87
55460;BME280;41326;45.302;-122.946;2023-01-28T06:15:41;101681.32;;;17.65;59.73
55460;BME280;41326;45.302;-122.946;2023-01-28T06:18:12;101685.31;;;17.67;59.58
55460;BME280;41326;45.302;-122.946;2023-01-28T06:20:42;101688.05;;;17.65;59.48
55460;BME280;41326;45.302;-122.946;2023-01-28T06:23:12;101686.30;;;17.61;59.42
55460;BME280;41326;45.302;-122.946;2023-01-28T06:25:43;101685.30;;;17.56;59.51
55460;BME280;41326;45.302;-122.946;2023-01-28T06:28:13;101688.26;;;17.56;59.28
55460;BME280;41326;45.302;-122.946;2023-01-28T06:30:43;101686.48;;;17.56;59.04
55460;BME280;41326;45.302;-122.946;2023-01-28T06:33:14;101688.03;;;17.52;59.09
55460;BME280;41326;45.302;-122.946;2023-01-28T06:35:44;101693.46;;;17.52;59.02
55460;BME280;41326;45.302;-122.946;2023-01-28T06:38:14;101694.66;;;17.50;59.03
55460;BME280;41326;45.302;-122.946;2023-01-28T06:40:49;101690.39;;;17.47;58.98
55460;BME280;41326;45.302;-122.946;2023-01-28T06:43:16;101684.05;;;17.45;58.95
55460;BME280;41326;45.302;-122.946;2023-01-28T06:45:46;101677.52;;;17.44;58.94
55460;BME280;41326;45.302;-122.946;2023-01-28T06:48:16;101672.28;;;17.45;58.86
55460;BME280;41326;45.302;-122.946;2023-01-28T06:50:46;101675.09;;;17.42;58.96
55460;BME280;41326;45.302;-122.946;2023-01-28T06:53:17;101677.28;;;17.38;59.00
55460;BME280;41326;45.302;-122.946;2023-01-28T06:55:47;101675.70;;;17.38;58.98
55460;BME280;41326;45.302;-122.946;2023-01-28T06:58:17;101673.66;;;17.38;58.89
55460;BME280;41326;45.302;-122.946;2023-01-28T07:00:47;101676.52;;;17.39;58.84
55460;BME280;41326;45.302;-122.946;2023-01-28T07:03:17;101681.63;;;17.40;58.71
55460;BME280;41326;45.302;-122.946;2023-01-28T07:05:48;101682.20;;;17.37;58.80
55460;BME280;41326;45.302;-122.946;2023-01-28T07:08:18;101683.74;;;17.35;58.87
55460;BME280;41326;45.302;-122.946;2023-01-28T07:10:48;101686.10;;;17.33;58.93
55460;BME280;41326;45.302;-122.946;2023-01-28T07:13:18;101684.31;;;17.30;59.00
55460;BME280;41326;45.302;-122.946;2023-01-28T07:15:49;101680.18;;;17.30;58.95
55460;BME280;41326;45.302;-122.946;2023-01-28T07:18:19;101677.81;;;17.27;59.02
55460;BME280;41326;45.302;-122.946;2023-01-28T07:20:49;101679.77;;;17.26;59.00
55460;BME280;41326;45.302;-122.946;2023-01-28T07:23:20;101679.61;;;17.27;59.00
55460;BME280;41326;45.302;-122.946;2023-01-28T07:25:50;101679.11;;;17.25;59.06
55460;BME280;41326;45.302;-122.946;2023-01-28T07:28:21;101678.49;;;17.23;59.13
55460;BME280;41326;45.302;-122.946;2023-01-28T07:30:51;101678.30;;;17.21;59.15
55460;BME280;41326;45.302;-122.946;2023-01-28T07:33:21;101673.47;;;17.22;59.12
55460;BME280;41326;45.302;-122.946;2023-01-28T07:35:51;101671.71;;;17.19;59.21
55460;BME280;41326;45.302;-122.946;2023-01-28T07:38:21;101673.13;;;17.18;59.25
55460;BME280;41326;45.302;-122.946;2023-01-28T07:40:52;101669.71;;;17.15;59.28
55460;BME280;41326;45.302;-122.946;2023-01-28T07:43:22;101663.74;;;17.10;59.44
55460;BME280;41326;45.302;-122.946;2023-01-28T07:45:53;101661.61;;;17.09;59.60
55460;BME280;41326;45.302;-122.946;2023-01-28T07:48:23;101658.82;;;17.08;59.68
55460;BME280;41326;45.302;-122.946;2023-01-28T07:50:56;101654.55;;;17.04;59.79
55460;BME280;41326;45.302;-122.946;2023-01-28T07:53:24;101653.95;;;17.05;59.75
55460;BME280;41326;45.302;-122.946;2023-01-28T07:55:58;101653.08;;;17.03;59.81
55460;BME280;41326;45.302;-122.946;2023-01-28T07:58:25;101649.03;;;17.02;59.77
55460;BME280;41326;45.302;-122.946;2023-01-28T08:00:56;101645.88;;;17.01;59.71
55460;BME280;41326;45.302;-122.946;2023-01-28T08:03:26;101644.26;;;17.02;59.71
55460;BME280;41326;45.302;-122.946;2023-01-28T08:05:56;101641.44;;;17.00;59.83
55460;BME280;41326;45.302;-122.946;2023-01-28T08:08:26;101639.23;;;16.97;59.86
55460;BME280;41326;45.302;-122.946;2023-01-28T08:10:57;101638.11;;;16.95;59.97
55460;BME280;41326;45.302;-122.946;2023-01-28T08:13:27;101637.55;;;16.96;59.92
55460;BME280;41326;45.302;-122.946;2023-01-28T08:16:00;101639.99;;;16.95;59.92
55460;BME280;41326;45.302;-122.946;2023-01-28T08:18:28;101640.11;;;16.98;59.79
55460;BME280;41326;45.302;-122.946;2023-01-28T08:21:00;101639.26;;;16.94;59.90
55460;BME280;41326;45.302;-122.946;2023-01-28T08:23:30;101639.91;;;16.89;60.10
55460;BME280;41326;45.302;-122.946;2023-01-28T08:25:59;101637.33;;;16.91;60.03
55460;BME280;41326;45.302;-122.946;2023-01-28T08:28:29;101633.16;;;16.93;59.99
55460;BME280;41326;45.302;-122.946;2023-01-28T08:31:00;101628.05;;;16.90;60.04
55460;BME280;41326;45.302;-122.946;2023-01-28T08:33:30;101622.76;;;16.86;60.10
55460;BME280;41326;45.302;-122.946;2023-01-28T08:36:01;101621.14;;;16.86;60.16
55460;BME280;41326;45.302;-122.946;2023-01-28T08:38:30;101617.86;;;16.82;60.32
55460;BME280;41326;45.302;-122.946;2023-01-28T08:41:01;101616.10;;;16.82;60.37
55460;BME280;41326;45.302;-122.946;2023-01-28T08:43:31;101614.11;;;16.81;60.56
55460;BME280;41326;45.302;-122.946;2023-01-28T08:46:04;101607.75;;;16.77;60.67
55460;BME280;41326;45.302;-122.946;2023-01-28T08:48:32;101606.02;;;16.77;60.71
55460;BME280;41326;45.302;-122.946;2023-01-28T08:51:04;101601.57;;;16.76;60.62
55460;BME280;41326;45.302;-122.946;2023-01-28T08:53:33;101598.45;;;16.74;60.62
55460;BME280;41326;45.302;-122.946;2023-01-28T08:56:03;101603.60;;;16.72;60.69
55460;BME280;41326;45.302;-122.946;2023-01-28T08:58:33;101606.60;;;16.72;60.62
55460;BME280;41326;45.302;-122.946;2023-01-28T09:01:08;101609.60;;;16.72;60.65
55460;BME280;41326;45.302;-122.946;2023-01-28T09:03:34;101610.29;;;16.67;60.91
55460;BME280;41326;45.302;-122.946;2023-01-28T09:06:05;101603.57;;;16.66;61.00
55460;BME280;41326;45.302;-122.946;2023-01-28T09:08:34;101599.54;;;16.62;61.07
55460;BME280;41326;45.302;-122.946;2023-01-28T09:11:04;101601.36;;;16.63;61.04
55460;BME280;41326;45.302;-122.946;2023-01-28T09:13:35;101599.90;;;16.59;61.13
55460;BME280;41326;45.302;-122.946;2023-01-28T09:16:05;101594.88;;;16.59;61.06
55460;BME280;41326;45.302;-122.946;2023-01-28T09:18:36;101595.15;;;16.59;61.14
55460;BME280;41326;45.302;-122.946;2023-01-28T09:21:09;101596.25;;;16.60;60.97
55460;BME280;41326;45.302;-122.946;2023-01-28T09:23:38;101592.66;;;16.60;61.07
55460;BME280;41326;45.302;-122.946;2023-01-28T09:26:06;101592.81;;;16.62;60.85
55460;BME280;41326;45.302;-122.946;2023-01-28T09:28:37;101596.28;;;16.60;61.05
55460;BME280;41326;45.302;-122.946;2023-01-28T09:31:09;101598.24;;;16.61;61.08
55460;BME280;41326;45.302;-122.946;2023-01-28T09:33:38;101599.52;;;16.56;61.17
55460;BME280;41326;45.302;-122.946;2023-01-28T09:36:09;101598.71;;;16.59;61.08
55460;BME280;41326;45.302;-122.946;2023-01-28T09:38:38;101595.69;;;16.57;61.06
55460;BME280;41326;45.302;-122.946;2023-01-28T09:41:20;101599.53;;;16.57;60.97
55460;BME280;41326;45.302;-122.946;2023-01-28T09:43:52;101597.50;;;16.56;61.06
55460;BME280;41326;45.302;-122.946;2023-01-28T09:46:11;101595.86;;;16.53;61.15
55460;BME280;41326;45.302;-122.946;2023-01-28T09:48:41;101592.72;;;16.52;61.07
55460;BME280;41326;45.302;-122.946;2023-01-28T09:51:18;101594.62;;;16.49;61.23
55460;BME280;41326;45.302;-122.946;2023-01-28T09:53:44;101585.97;;;16.48;61.13
55460;BME280;41326;45.302;-122.946;2023-01-28T09:56:13;101583.82;;;16.46;61.20
55460;BME280;41326;45.302;-122.946;2023-01-28T09:58:41;101578.16;;;16.46;61.27
55460;BME280;41326;45.302;-122.946;2023-01-28T10:01:22;101574.62;;;16.46;61.23
55460;BME280;41326;45.302;-122.946;2023-01-28T10:03:51;101570.85;;;16.42;61.39
55460;BME280;41326;45.302;-122.946;2023-01-28T10:06:19;101572.25;;;16.42;61.39
55460;BME280;41326;45.302;-122.946;2023-01-28T10:11:19;101582.10;;;16.39;61.65
55460;BME280;41326;45.302;-122.946;2023-01-28T10:13:47;101583.89;;;16.36;61.71
55460;BME280;41326;45.302;-122.946;2023-01-28T10:16:20;101582.24;;;16.37;61.65
55460;BME280;41326;45.302;-122.946;2023-01-28T10:18:48;101585.23;;;16.34;61.74
55460;BME280;41326;45.302;-122.946;2023-01-28T10:21:19;101591.23;;;16.31;61.87
55460;BME280;41326;45.302;-122.946;2023-01-28T10:23:53;101593.92;;;16.31;61.78
55460;BME280;41326;45.302;-122.946;2023-01-28T10:26:21;101588.53;;;16.29;61.79
55460;BME280;41326;45.302;-122.946;2023-01-28T10:28:45;101583.28;;;16.29;61.71
55460;BME280;41326;45.302;-122.946;2023-01-28T10:31:17;101575.00;;;16.31;61.60
55460;BME280;41326;45.302;-122.946;2023-01-28T10:33:47;101568.95;;;16.27;61.75
55460;BME280;41326;45.302;-122.946;2023-01-28T10:36:16;101562.64;;;16.28;61.68
55460;BME280;41326;45.302;-122.946;2023-01-28T10:38:47;101552.75;;;16.28;61.62
55460;BME280;41326;45.302;-122.946;2023-01-28T10:41:22;101547.09;;;16.28;61.58
55460;BME280;41326;45.302;-122.946;2023-01-28T10:43:48;101547.42;;;16.24;61.68
55460;BME280;41326;45.302;-122.946;2023-01-28T10:46:21;101546.59;;;16.22;61.73
55460;BME280;41326;45.302;-122.946;2023-01-28T10:48:55;101539.58;;;16.22;61.68
55460;BME280;41326;45.302;-122.946;2023-01-28T10:51:28;101535.23;;;16.22;61.61
55460;BME280;41326;45.302;-122.946;2023-01-28T10:53:49;101529.54;;;16.20;61.63
55460;BME280;41326;45.302;-122.946;2023-01-28T10:56:23;101522.83;;;16.18;61.67
55460;BME280;41326;45.302;-122.946;2023-01-28T10:58:59;101522.13;;;16.19;61.67
55460;BME280;41326;45.302;-122.946;2023-01-28T11:01:20;101522.11;;;16.20;61.66
55460;BME280;41326;45.302;-122.946;2023-01-28T11:03:55;101520.14;;;16.19;61.74
55460;BME280;41326;45.302;-122.946;2023-01-28T11:06:25;101518.90;;;16.17;61.68
55460;BME280;41326;45.302;-122.946;2023-01-28T11:08:50;101519.02;;;16.19;61.73
55460;BME280;41326;45.302;-122.946;2023-01-28T11:11:23;101518.42;;;16.16;61.72
55460;BME280;41326;45.302;-122.946;2023-01-28T11:13:55;101515.75;;;16.12;61.80
55460;BME280;41326;45.302;-122.946;2023-01-28T11:16:22;101510.83;;;16.10;61.83
55460;BME280;41326;45.302;-122.946;2023-01-28T11:18:57;101509.13;;;16.10;61.77
55460;BME280;41326;45.302;-122.946;2023-01-28T11:21:25;101507.87;;;16.10;61.78
55460;BME280;41326;45.302;-122.946;2023-01-28T11:23:57;101504.66;;;16.09;61.72
55460;BME280;41326;45.302;-122.946;2023-01-28T11:26:26;101501.70;;;16.03;61.88
55460;BME280;41326;45.302;-122.946;2023-01-28T11:28:55;101496.44;;;16.04;61.78
55460;BME280;41326;45.302;-122.946;2023-01-28T11:31:26;101495.16;;;16.06;61.70
55460;BME280;41326;45.302;-122.946;2023-01-28T11:33:56;101493.10;;;16.06;61.62
55460;BME280;41326;45.302;-122.946;2023-01-28T11:36:27;101491.62;;;16.04;61.71
55460;BME280;41326;45.302;-122.946;2023-01-28T11:38:58;101489.35;;;16.04;61.89
55460;BME280;41326;45.302;-122.946;2023-01-28T11:41:31;101488.77;;;16.05;61.80
55460;BME280;41326;45.302;-122.946;2023-01-28T11:43:58;101490.53;;;16.02;61.87
55460;BME280;41326;45.302;-122.946;2023-01-28T11:49:04;101482.86;;;15.98;61.92
55460;BME280;41326;45.302;-122.946;2023-01-28T11:52:42;101474.16;;;15.97;61.92
55460;BME280;41326;45.302;-122.946;2023-01-28T11:55:40;101472.05;;;15.96;61.87
55460;BME280;41326;45.302;-122.946;2023-01-28T11:58:08;101468.14;;;15.96;61.90
55460;BME280;41326;45.302;-122.946;2023-01-28T12:00:39;101468.33;;;15.97;61.76
55460;BME280;41326;45.302;-122.946;2023-01-28T12:05:44;101470.95;;;15.96;61.70
55460;BME280;41326;45.302;-122.946;2023-01-28T12:08:11;101475.14;;;15.98;61.72
55460;BME280;41326;45.302;-122.946;2023-01-28T12:10:39;101476.65;;;15.95;61.81
55460;BME280;41326;45.302;-122.946;2023-01-28T12:13:14;101472.04;;;15.94;61.92
55460;BME280;41326;45.302;-122.946;2023-01-28T12:18:15;101467.10;;;15.92;62.02
55460;BME280;41326;45.302;-122.946;2023-01-28T12:20:37;101463.88;;;15.92;61.96
55460;BME280;41326;45.302;-122.946;2023-01-28T12:23:17;101460.64;;;15.91;61.91
55460;BME280;41326;45.302;-122.946;2023-01-28T12:25:44;101450.12;;;15.90;61.91
55460;BME280;41326;45.302;-122.946;2023-01-28T12:28:11;101449.31;;;15.89;61.96
55460;BME280;41326;45.302;-122.946;2023-01-28T12:30:46;101447.90;;;15.89;61.97
55460;BME280;41326;45.302;-122.946;2023-01-28T12:35:41;101449.87;;;15.85;62.09
55460;BME280;41326;45.302;-122.946;2023-01-28T12:38:13;101448.32;;;15.86;62.07
55460;BME280;41326;45.302;-122.946;2023-01-28T12:40:46;101445.80;;;15.85;62.08
55460;BME280;41326;45.302;-122.946;2023-01-28T12:43:12;101446.72;;;15.83;62.16
55460;BME280;41326;45.302;-122.946;2023-01-28T12:45:41;101452.69;;;15.81;62.19
55460;BME280;41326;45.302;-122.946;2023-01-28T12:48:12;101454.23;;;15.81;62.07
55460;BME280;41326;45.302;-122.946;2023-01-28T12:50:43;101453.20;;;15.84;61.95
55460;BME280;41326;45.302;-122.946;2023-01-28T12:53:16;101452.89;;;15.83;61.97
55460;BME280;41326;45.302;-122.946;2023-01-28T12:55:45;101453.28;;;15.81;61.93